sensor_id;sensor_type;location;lat;lon;timestamp;pressure;altitude;pressure_sealevel;temperature;humidity
37648;BME280;23490;53.656;10.076;2022-11-20T00:02:19;99862.06;;;-145.95;92.35
37648;BME280;23490;53.656;10.076;2022-11-20T00:04:44;99841.41;;;-145.95;92.90
37648;BME280;23490;53.656;10.076;2022-11-20T00:07:09;99831.06;;;-145.95;92.22
37648;BME280;23490;53.656;10.076;2022-11-20T00:09:35;99843.47;;;-145.95;92.32
37648;BME280;23490;53.656;10.076;2022-11-20T00:12:00;99843.47;;;-145.95;92.71
37648;BME280;23490;53.656;10.076;2022-11-20T00:14:25;99816.63;;;-145.95;94.30
37648;BME280;23490;53.656;10.076;2022-11-20T00:16:50;99839.34;;;-145.95;93.00
37648;BME280;23490;53.656;10.076;2022-11-20T00:19:16;99855.84;;;-145.95;93.51
37648;BME280;23490;53.656;10.076;2022-11-20T00:21:41;99880.66;;;-145.95;92.98
37648;BME280;23490;53.656;10.076;2022-11-20T00:24:08;99822.81;;;-145.95;92.75
37648;BME280;23490;53.656;10.076;2022-11-20T00:26:33;99826.94;;;-145.95;92.67
37648;BME280;23490;53.656;10.076;2022-11-20T00:29:00;99855.84;;;-145.95;92.62
37648;BME280;23490;53.656;10.076;2022-11-20T00:31:26;99857.94;;;-145.95;93.27
37648;BME280;23490;53.656;10.076;2022-11-20T00:33:52;99810.41;;;-145.95;93.25
37648;BME280;23490;53.656;10.076;2022-11-20T00:36:19;99843.47;;;-145.95;93.59
37648;BME280;23490;53.656;10.076;2022-11-20T00:38:45;99843.47;;;-145.95;93.80
37648;BME280;23490;53.656;10.076;2022-11-20T00:41:14;99802.16;;;-145.95;94.16
37648;BME280;23490;53.656;10.076;2022-11-20T00:43:40;99862.06;;;-145.95;94.71
37648;BME280;23490;53.656;10.076;2022-11-20T00:46:12;99860.00;;;-145.95;94.95
37648;BME280;23490;53.656;10.076;2022-11-20T00:48:37;99860.00;;;-145.95;94.96
37648;BME280;23490;53.656;10.076;2022-11-20T00:51:03;99839.34;;;-145.95;95.26
37648;BME280;23490;53.656;10.076;2022-11-20T00:53:28;99822.81;;;-145.95;95.16
37648;BME280;23490;53.656;10.076;2022-11-20T00:55:58;99835.19;;;-145.95;94.98
37648;BME280;23490;53.656;10.076;2022-11-20T00:58:24;99835.19;;;-145.95;95.27
37648;BME280;23490;53.656;10.076;2022-11-20T01:00:50;99818.69;;;-145.95;94.86
37648;BME280;23490;53.656;10.076;2022-11-20T01:03:17;99857.94;;;-145.95;95.18
37648;BME280;23490;53.656;10.076;2022-11-20T01:05:42;99835.19;;;-145.95;94.98
37648;BME280;23490;53.656;10.076;2022-11-20T01:08:08;99872.38;;;-145.95;95.36
37648;BME280;23490;53.656;10.076;2022-11-20T01:10:33;99866.19;;;-145.95;96.59
37648;BME280;23490;53.656;10.076;2022-11-20T01:12:58;99814.56;;;-145.95;96.37
37648;BME280;23490;53.656;10.076;2022-11-20T01:15:42;99851.72;;;-145.95;95.33
37648;BME280;23490;53.656;10.076;2022-11-20T01:18:07;99855.84;;;-145.95;95.09
37648;BME280;23490;53.656;10.076;2022-11-20T01:20:36;99837.28;;;-145.95;95.23
37648;BME280;23490;53.656;10.076;2022-11-20T01:23:03;99851.72;;;-145.95;95.64
37648;BME280;23490;53.656;10.076;2022-11-20T01:25:28;99831.06;;;-145.95;96.49
37648;BME280;23490;53.656;10.076;2022-11-20T01:27:54;99837.28;;;-145.95;95.58
37648;BME280;23490;53.656;10.076;2022-11-20T01:30:19;99868.25;;;-145.95;95.39
37648;BME280;23490;53.656;10.076;2022-11-20T01:32:45;99826.94;;;-145.95;95.91
37648;BME280;23490;53.656;10.076;2022-11-20T01:35:10;99818.69;;;-145.95;95.46
37648;BME280;23490;53.656;10.076;2022-11-20T01:37:35;99835.19;;;-145.95;96.06
37648;BME280;23490;53.656;10.076;2022-11-20T01:40:01;99814.56;;;-145.95;97.58
37648;BME280;23490;53.656;10.076;2022-11-20T01:42:26;99868.25;;;-145.95;96.98
37648;BME280;23490;53.656;10.076;2022-11-20T01:45:52;99839.34;;;-145.95;97.25
37648;BME280;23490;53.656;10.076;2022-11-20T01:48:22;99843.47;;;-145.95;97.88
37648;BME280;23490;53.656;10.076;2022-11-20T01:50:50;99843.47;;;-145.95;96.84
37648;BME280;23490;53.656;10.076;2022-11-20T01:53:18;99835.19;;;-145.95;97.78
37648;BME280;23490;53.656;10.076;2022-11-20T01:55:51;99884.78;;;-145.95;97.82
37648;BME280;23490;53.656;10.076;2022-11-20T01:58:22;99847.59;;;-145.95;97.95
37648;BME280;23490;53.656;10.076;2022-11-20T02:00:48;99872.38;;;-145.95;97.68
37648;BME280;23490;53.656;10.076;2022-11-20T02:03:16;99857.94;;;-145.95;98.36
37648;BME280;23490;53.656;10.076;2022-11-20T02:06:05;99893.03;;;-145.95;98.59
37648;BME280;23490;53.656;10.076;2022-11-20T02:08:34;99880.66;;;-145.95;99.06
37648;BME280;23490;53.656;10.076;2022-11-20T02:11:00;99862.06;;;-145.95;99.54
37648;BME280;23490;53.656;10.076;2022-11-20T02:13:26;99839.34;;;-145.95;99.63
37648;BME280;23490;53.656;10.076;2022-11-20T02:18:50;99893.03;;;-145.95;99.96
37648;BME280;23490;53.656;10.076;2022-11-20T02:21:55;99870.31;;;-145.95;100.00
37648;BME280;23490;53.656;10.076;2022-11-20T02:24:21;99864.13;;;-145.95;100.00
37648;BME280;23490;53.656;10.076;2022-11-20T02:26:54;99868.25;;;-145.95;100.00
37648;BME280;23490;53.656;10.076;2022-11-20T02:29:32;99895.09;;;-145.95;100.00
37648;BME280;23490;53.656;10.076;2022-11-20T02:32:00;99901.31;;;-145.95;100.00
37648;BME280;23490;53.656;10.076;2022-11-20T02:34:26;99888.91;;;-145.95;100.00
37648;BME280;23490;53.656;10.076;2022-11-20T02:36:52;99884.78;;;-145.95;100.00
37648;BME280;23490;53.656;10.076;2022-11-20T02:39:19;99882.72;;;-145.95;100.00
37648;BME280;23490;53.656;10.076;2022-11-20T02:41:45;99860.00;;;-145.95;100.00
37648;BME280;23490;53.656;10.076;2022-11-20T02:44:11;99872.38;;;-145.95;100.00
37648;BME280;23490;53.656;10.076;2022-11-20T02:46:36;99872.38;;;-145.95;100.00
37648;BME280;23490;53.656;10.076;2022-11-20T02:49:03;99860.00;;;-145.95;100.00
37648;BME280;23490;53.656;10.076;2022-11-20T02:51:28;99855.84;;;-145.95;100.00
37648;BME280;23490;53.656;10.076;2022-11-20T02:53:54;99884.78;;;-145.95;100.00
37648;BME280;23490;53.656;10.076;2022-11-20T02:56:19;99897.16;;;-145.95;100.00
37648;BME280;23490;53.656;10.076;2022-11-20T02:58:45;99872.38;;;-145.95;100.00
37648;BME280;23490;53.656;10.076;2022-11-20T03:01:10;99880.66;;;-145.95;100.00
37648;BME280;23490;53.656;10.076;2022-11-20T03:03:35;99835.19;;;-145.95;100.00
37648;BME280;23490;53.656;10.076;2022-11-20T03:06:01;99860.00;;;-145.95;100.00
37648;BME280;23490;53.656;10.076;2022-11-20T03:08:26;99860.00;;;-145.95;100.00
37648;BME280;23490;53.656;10.076;2022-11-20T03:10:51;99876.50;;;-145.95;100.00
37648;BME280;23490;53.656;10.076;2022-11-20T03:13:17;99876.50;;;-145.95;100.00
37648;BME280;23490;53.656;10.076;2022-11-20T03:15:42;99864.13;;;-145.95;100.00
37648;BME280;23490;53.656;10.076;2022-11-20T03:18:07;99847.59;;;-145.95;100.00
37648;BME280;23490;53.656;10.076;2022-11-20T03:20:33;99860.00;;;-145.95;100.00
37648;BME280;23490;53.656;10.076;2022-11-20T03:22:59;99897.16;;;-145.95;100.00
37648;BME280;23490;53.656;10.076;2022-11-20T03:25:24;99888.91;;;-145.95;100.00
37648;BME280;23490;53.656;10.076;2022-11-20T03:27:50;99888.91;;;-145.95;100.00
37648;BME280;23490;53.656;10.076;2022-11-20T03:30:15;99886.84;;;-145.95;100.00
37648;BME280;23490;53.656;10.076;2022-11-20T03:32:41;99884.78;;;-145.95;100.00
37648;BME280;23490;53.656;10.076;2022-11-20T03:35:07;99880.66;;;-145.95;100.00
37648;BME280;23490;53.656;10.076;2022-11-20T03:37:32;99876.50;;;-145.95;100.00
37648;BME280;23490;53.656;10.076;2022-11-20T03:39:58;99880.66;;;-145.95;100.00
37648;BME280;23490;53.656;10.076;2022-11-20T03:42:23;99888.91;;;-145.95;100.00
37648;BME280;23490;53.656;10.076;2022-11-20T03:45:07;99835.19;;;-145.95;100.00
37648;BME280;23490;53.656;10.076;2022-11-20T03:47:33;99847.59;;;-145.95;100.00
37648;BME280;23490;53.656;10.076;2022-11-20T03:49:58;99893.03;;;-145.95;100.00
37648;BME280;23490;53.656;10.076;2022-11-20T03:52:24;99888.91;;;-145.95;100.00
37648;BME280;23490;53.656;10.076;2022-11-20T03:54:49;99860.00;;;-145.95;100.00
37648;BME280;23490;53.656;10.076;2022-11-20T03:57:14;99860.00;;;-145.95;100.00
37648;BME280;23490;53.656;10.076;2022-11-20T03:59:40;99843.47;;;-145.95;100.00
37648;BME280;23490;53.656;10.076;2022-11-20T04:02:05;99890.97;;;-145.95;100.00
37648;BME280;23490;53.656;10.076;2022-11-20T04:04:30;99872.38;;;-145.95;100.00
37648;BME280;23490;53.656;10.076;2022-11-20T04:06:56;99880.66;;;-145.95;100.00
37648;BME280;23490;53.656;10.076;2022-11-20T04:09:21;99872.38;;;-145.95;100.00
37648;BME280;23490;53.656;10.076;2022-11-20T04:11:46;99851.72;;;-145.95;100.00
37648;BME280;23490;53.656;10.076;2022-11-20T04:14:13;99880.66;;;-145.95;100.00
37648;BME280;23490;53.656;10.076;2022-11-20T04:16:39;99888.91;;;-145.95;100.00
37648;BME280;23490;53.656;10.076;2022-11-20T04:19:08;99866.19;;;-145.95;100.00
37648;BME280;23490;53.656;10.076;2022-11-20T04:21:34;99897.16;;;-145.95;100.00
37648;BME280;23490;53.656;10.076;2022-11-20T04:24:00;99866.19;;;-145.95;100.00
37648;BME280;23490;53.656;10.076;2022-11-20T04:26:26;99870.31;;;-145.95;100.00
37648;BME280;23490;53.656;10.076;2022-11-20T04:28:52;99857.94;;;-145.95;100.00
37648;BME280;23490;53.656;10.076;2022-11-20T04:31:22;99901.31;;;-145.95;100.00
37648;BME280;23490;53.656;10.076;2022-11-20T04:33:48;99897.16;;;-145.95;100.00
37648;BME280;23490;53.656;10.076;2022-11-20T04:36:16;99847.59;;;-145.95;100.00
37648;BME280;23490;53.656;10.076;2022-11-20T04:38:42;99893.03;;;-145.95;100.00
37648;BME280;23490;53.656;10.076;2022-11-20T04:41:13;99913.69;;;-145.95;100.00
37648;BME280;23490;53.656;10.076;2022-11-20T04:43:40;99897.16;;;-145.95;100.00
37648;BME280;23490;53.656;10.076;2022-11-20T04:46:05;99901.31;;;-145.95;100.00
37648;BME280;23490;53.656;10.076;2022-11-20T04:48:31;99884.78;;;-145.95;100.00
37648;BME280;23490;53.656;10.076;2022-11-20T04:50:56;99893.03;;;-145.95;100.00
37648;BME280;23490;53.656;10.076;2022-11-20T04:53:22;99901.31;;;-145.95;100.00
37648;BME280;23490;53.656;10.076;2022-11-20T04:55:48;99897.16;;;-145.95;100.00
37648;BME280;23490;53.656;10.076;2022-11-20T04:58:14;99897.16;;;-145.95;100.00
37648;BME280;23490;53.656;10.076;2022-11-20T05:00:39;99860.00;;;-145.95;100.00
37648;BME280;23490;53.656;10.076;2022-11-20T05:03:05;99888.91;;;-145.95;100.00
37648;BME280;23490;53.656;10.076;2022-11-20T05:05:30;99897.16;;;-145.95;100.00
37648;BME280;23490;53.656;10.076;2022-11-20T05:07:58;99868.25;;;-145.95;100.00
37648;BME280;23490;53.656;10.076;2022-11-20T05:10:25;99899.22;;;-145.95;100.00
37648;BME280;23490;53.656;10.076;2022-11-20T05:12:50;99847.59;;;-145.95;100.00
37648;BME280;23490;53.656;10.076;2022-11-20T05:15:16;99901.31;;;-145.95;100.00
37648;BME280;23490;53.656;10.076;2022-11-20T05:17:47;99893.03;;;-145.95;100.00
37648;BME280;23490;53.656;10.076;2022-11-20T05:20:12;99888.91;;;-145.95;100.00
37648;BME280;23490;53.656;10.076;2022-11-20T05:22:38;99847.59;;;-145.95;100.00
37648;BME280;23490;53.656;10.076;2022-11-20T05:25:03;99860.00;;;-145.95;100.00
37648;BME280;23490;53.656;10.076;2022-11-20T05:27:29;99911.63;;;-145.95;100.00
37648;BME280;23490;53.656;10.076;2022-11-20T05:29:54;99901.31;;;-145.95;100.00
37648;BME280;23490;53.656;10.076;2022-11-20T05:32:19;99868.25;;;-145.95;100.00
37648;BME280;23490;53.656;10.076;2022-11-20T05:34:45;99880.66;;;-145.95;100.00
37648;BME280;23490;53.656;10.076;2022-11-20T05:37:10;99888.91;;;-145.95;100.00
37648;BME280;23490;53.656;10.076;2022-11-20T05:39:35;99901.31;;;-145.95;100.00
37648;BME280;23490;53.656;10.076;2022-11-20T05:42:00;99899.22;;;-145.95;100.00
37648;BME280;23490;53.656;10.076;2022-11-20T05:44:44;99843.47;;;-145.95;100.00
37648;BME280;23490;53.656;10.076;2022-11-20T05:47:10;99878.56;;;-145.95;100.00
37648;BME280;23490;53.656;10.076;2022-11-20T05:49:35;99880.66;;;-145.95;100.00
37648;BME280;23490;53.656;10.076;2022-11-20T05:52:00;99857.94;;;-145.95;100.00
37648;BME280;23490;53.656;10.076;2022-11-20T05:54:26;99884.78;;;-145.95;100.00
37648;BME280;23490;53.656;10.076;2022-11-20T05:56:51;99897.16;;;-145.95;100.00
37648;BME280;23490;53.656;10.076;2022-11-20T05:59:16;99897.16;;;-145.95;100.00
37648;BME280;23490;53.656;10.076;2022-11-20T06:01:42;99903.38;;;-145.95;100.00
37648;BME280;23490;53.656;10.076;2022-11-20T06:04:07;99886.84;;;-145.95;100.00
37648;BME280;23490;53.656;10.076;2022-11-20T06:06:32;99913.69;;;-145.95;100.00
37648;BME280;23490;53.656;10.076;2022-11-20T06:08:58;99872.38;;;-145.95;100.00
37648;BME280;23490;53.656;10.076;2022-11-20T06:11:24;99938.47;;;-145.95;100.00
37648;BME280;23490;53.656;10.076;2022-11-20T06:13:50;99897.16;;;-145.95;100.00
37648;BME280;23490;53.656;10.076;2022-11-20T06:16:18;99899.22;;;-145.95;100.00
37648;BME280;23490;53.656;10.076;2022-11-20T06:18:44;99897.16;;;-145.95;100.00
37648;BME280;23490;53.656;10.076;2022-11-20T06:21:12;99909.56;;;-145.95;100.00
37648;BME280;23490;53.656;10.076;2022-11-20T06:23:39;99886.84;;;-145.95;100.00
37648;BME280;23490;53.656;10.076;2022-11-20T06:26:07;99901.31;;;-145.95;100.00
37648;BME280;23490;53.656;10.076;2022-11-20T06:28:32;99864.13;;;-145.95;100.00
37648;BME280;23490;53.656;10.076;2022-11-20T06:30:58;99901.31;;;-145.95;100.00
37648;BME280;23490;53.656;10.076;2022-11-20T06:33:24;99897.16;;;-145.95;100.00
37648;BME280;23490;53.656;10.076;2022-11-20T06:35:49;99897.16;;;-145.95;100.00
37648;BME280;23490;53.656;10.076;2022-11-20T06:38:15;99899.22;;;-145.95;100.00
37648;BME280;23490;53.656;10.076;2022-11-20T06:40:41;99901.31;;;-145.95;100.00
37648;BME280;23490;53.656;10.076;2022-11-20T06:43:08;99913.69;;;-145.95;100.00
37648;BME280;23490;53.656;10.076;2022-11-20T06:45:33;99872.38;;;-145.95;100.00
37648;BME280;23490;53.656;10.076;2022-11-20T06:47:59;99888.91;;;-145.95;100.00
37648;BME280;23490;53.656;10.076;2022-11-20T06:50:24;99868.25;;;-145.95;100.00
37648;BME280;23490;53.656;10.076;2022-11-20T06:52:49;99882.72;;;-145.95;100.00
37648;BME280;23490;53.656;10.076;2022-11-20T06:55:14;99886.84;;;-145.95;100.00
37648;BME280;23490;53.656;10.076;2022-11-20T06:57:40;99864.13;;;-145.95;100.00
37648;BME280;23490;53.656;10.076;2022-11-20T07:00:06;99884.78;;;-145.95;100.00
37648;BME280;23490;53.656;10.076;2022-11-20T07:02:31;99835.19;;;-145.95;100.00
37648;BME280;23490;53.656;10.076;2022-11-20T07:04:56;99880.66;;;-145.95;100.00
37648;BME280;23490;53.656;10.076;2022-11-20T07:07:22;99893.03;;;-145.95;100.00
37648;BME280;23490;53.656;10.076;2022-11-20T07:09:47;99868.25;;;-145.95;100.00
37648;BME280;23490;53.656;10.076;2022-11-20T07:12:12;99893.03;;;-145.95;100.00
37648;BME280;23490;53.656;10.076;2022-11-20T07:14:37;99897.16;;;-145.95;100.00
37648;BME280;23490;53.656;10.076;2022-11-20T07:17:03;99888.91;;;-145.95;100.00
37648;BME280;23490;53.656;10.076;2022-11-20T07:19:28;99880.66;;;-145.95;100.00
37648;BME280;23490;53.656;10.076;2022-11-20T07:21:53;99843.47;;;-145.95;100.00
37648;BME280;23490;53.656;10.076;2022-11-20T07:24:19;99895.09;;;-145.95;100.00
37648;BME280;23490;53.656;10.076;2022-11-20T07:26:46;99884.78;;;-145.95;100.00
37648;BME280;23490;53.656;10.076;2022-11-20T07:29:12;99880.66;;;-145.95;99.67
37648;BME280;23490;53.656;10.076;2022-11-20T07:31:37;99888.91;;;-145.95;99.61
37648;BME280;23490;53.656;10.076;2022-11-20T07:34:02;99860.00;;;-145.95;99.93
37648;BME280;23490;53.656;10.076;2022-11-20T07:36:27;99880.66;;;-145.95;100.00
37648;BME280;23490;53.656;10.076;2022-11-20T07:38:53;99860.00;;;-145.95;99.79
37648;BME280;23490;53.656;10.076;2022-11-20T07:41:19;99847.59;;;-145.95;99.21
37648;BME280;23490;53.656;10.076;2022-11-20T07:43:44;99831.06;;;-145.95;98.37
37648;BME280;23490;53.656;10.076;2022-11-20T07:46:10;99870.31;;;-145.95;98.74
37648;BME280;23490;53.656;10.076;2022-11-20T07:48:35;99888.91;;;-145.95;98.73
37648;BME280;23490;53.656;10.076;2022-11-20T07:51:01;99880.66;;;-145.95;99.35
37648;BME280;23490;53.656;10.076;2022-11-20T07:53:26;99886.84;;;-145.95;99.11
37648;BME280;23490;53.656;10.076;2022-11-20T07:55:51;99876.50;;;-145.95;98.99
37648;BME280;23490;53.656;10.076;2022-11-20T07:58:18;99866.19;;;-145.95;98.63
37648;BME280;23490;53.656;10.076;2022-11-20T08:00:44;99839.34;;;-145.95;98.76
37648;BME280;23490;53.656;10.076;2022-11-20T08:03:09;99880.66;;;-145.95;98.80
37648;BME280;23490;53.656;10.076;2022-11-20T08:05:34;99868.25;;;-145.95;99.88
37648;BME280;23490;53.656;10.076;2022-11-20T08:07:59;99864.13;;;-145.95;99.78
37648;BME280;23490;53.656;10.076;2022-11-20T08:10:25;99901.31;;;-145.95;100.00
37648;BME280;23490;53.656;10.076;2022-11-20T08:12:51;99833.13;;;-145.95;99.79
37648;BME280;23490;53.656;10.076;2022-11-20T08:15:37;99862.06;;;-145.95;100.00
37648;BME280;23490;53.656;10.076;2022-11-20T08:18:05;99880.66;;;-145.95;100.00
37648;BME280;23490;53.656;10.076;2022-11-20T08:20:30;99864.13;;;-145.95;100.00
37648;BME280;23490;53.656;10.076;2022-11-20T08:23:01;99870.31;;;-145.95;100.00
37648;BME280;23490;53.656;10.076;2022-11-20T08:25:27;99876.50;;;-145.95;100.00
37648;BME280;23490;53.656;10.076;2022-11-20T08:27:52;99868.25;;;-145.95;100.00
37648;BME280;23490;53.656;10.076;2022-11-20T08:30:17;99878.56;;;-145.95;100.00
37648;BME280;23490;53.656;10.076;2022-11-20T08:32:42;99884.78;;;-145.95;100.00
37648;BME280;23490;53.656;10.076;2022-11-20T08:35:08;99872.38;;;-145.95;100.00
37648;BME280;23490;53.656;10.076;2022-11-20T08:37:33;99868.25;;;-145.95;100.00
37648;BME280;23490;53.656;10.076;2022-11-20T08:39:58;99847.59;;;-145.95;100.00
37648;BME280;23490;53.656;10.076;2022-11-20T08:42:24;99810.41;;;-145.95;100.00
37648;BME280;23490;53.656;10.076;2022-11-20T08:44:49;99835.19;;;-145.95;100.00
37648;BME280;23490;53.656;10.076;2022-11-20T08:47:14;99843.47;;;-145.95;100.00
37648;BME280;23490;53.656;10.076;2022-11-20T08:49:40;99851.72;;;-145.95;100.00
37648;BME280;23490;53.656;10.076;2022-11-20T08:52:05;99872.38;;;-145.95;100.00
37648;BME280;23490;53.656;10.076;2022-11-20T08:54:30;99876.50;;;-145.95;100.00
37648;BME280;23490;53.656;10.076;2022-11-20T08:56:56;99857.94;;;-145.95;100.00
37648;BME280;23490;53.656;10.076;2022-11-20T08:59:21;99806.28;;;-145.95;100.00
37648;BME280;23490;53.656;10.076;2022-11-20T09:01:46;99855.84;;;-145.95;100.00
37648;BME280;23490;53.656;10.076;2022-11-20T09:04:12;99835.19;;;-145.95;100.00
37648;BME280;23490;53.656;10.076;2022-11-20T09:06:39;99880.66;;;-145.95;100.00
37648;BME280;23490;53.656;10.076;2022-11-20T09:09:05;99864.13;;;-145.95;100.00
37648;BME280;23490;53.656;10.076;2022-11-20T09:11:31;99864.13;;;-145.95;100.00
37648;BME280;23490;53.656;10.076;2022-11-20T09:13:56;99860.00;;;-145.95;100.00
37648;BME280;23490;53.656;10.076;2022-11-20T09:16:21;99886.84;;;-145.95;100.00
37648;BME280;23490;53.656;10.076;2022-11-20T09:18:49;99876.50;;;-145.95;100.00
37648;BME280;23490;53.656;10.076;2022-11-20T09:21:14;99847.59;;;-145.95;100.00
37648;BME280;23490;53.656;10.076;2022-11-20T09:23:40;99818.69;;;-145.95;100.00
37648;BME280;23490;53.656;10.076;2022-11-20T09:26:10;99814.56;;;-145.95;100.00
37648;BME280;23490;53.656;10.076;2022-11-20T09:28:35;99841.41;;;-145.95;100.00
37648;BME280;23490;53.656;10.076;2022-11-20T09:31:04;99785.63;;;-145.95;100.00
37648;BME280;23490;53.656;10.076;2022-11-20T09:33:30;99810.41;;;-145.95;100.00
37648;BME280;23490;53.656;10.076;2022-11-20T09:35:55;99810.41;;;-145.95;100.00
37648;BME280;23490;53.656;10.076;2022-11-20T09:38:20;99779.44;;;-145.95;100.00
37648;BME280;23490;53.656;10.076;2022-11-20T09:40:58;99802.16;;;-145.95;100.00
37648;BME280;23490;53.656;10.076;2022-11-20T09:46:41;99810.41;;;-145.95;100.00
37648;BME280;23490;53.656;10.076;2022-11-20T09:49:22;99818.69;;;-145.95;100.00
37648;BME280;23490;53.656;10.076;2022-11-20T09:52:00;99847.59;;;-145.95;100.00
37648;BME280;23490;53.656;10.076;2022-11-20T09:54:35;99789.75;;;-145.95;100.00
37648;BME280;23490;53.656;10.076;2022-11-20T09:57:07;99831.06;;;-145.95;100.00
37648;BME280;23490;53.656;10.076;2022-11-20T09:59:36;99804.22;;;-145.95;100.00
37648;BME280;23490;53.656;10.076;2022-11-20T10:02:39;99831.06;;;-145.95;100.00
37648;BME280;23490;53.656;10.076;2022-11-20T10:05:19;99833.13;;;-145.95;100.00
37648;BME280;23490;53.656;10.076;2022-11-20T10:07:58;99785.63;;;-145.95;100.00
37648;BME280;23490;53.656;10.076;2022-11-20T10:18:48;99839.34;;;-145.95;99.98
37648;BME280;23490;53.656;10.076;2022-11-20T10:21:50;99744.31;;;-145.95;98.25
37648;BME280;23490;53.656;10.076;2022-11-20T10:24:29;99769.13;;;-145.95;99.32
37648;BME280;23490;53.656;10.076;2022-11-20T10:30:12;99769.13;;;-145.95;99.20
37648;BME280;23490;53.656;10.076;2022-11-20T10:33:06;99785.63;;;-145.95;97.47
37648;BME280;23490;53.656;10.076;2022-11-20T10:35:45;99802.16;;;-145.95;96.60
37648;BME280;23490;53.656;10.076;2022-11-20T10:38:24;99752.59;;;-145.95;94.94
37648;BME280;23490;53.656;10.076;2022-11-20T10:40:54;99779.44;;;-145.95;94.58
37648;BME280;23490;53.656;10.076;2022-11-20T10:43:41;99762.91;;;-145.95;95.86
37648;BME280;23490;53.656;10.076;2022-11-20T10:46:11;99773.25;;;-145.95;95.69
37648;BME280;23490;53.656;10.076;2022-11-20T10:48:40;99802.16;;;-145.95;96.46
37648;BME280;23490;53.656;10.076;2022-11-20T10:54:01;99798.03;;;-145.95;96.89
37648;BME280;23490;53.656;10.076;2022-11-20T10:56:47;99802.16;;;-145.95;96.89
37648;BME280;23490;53.656;10.076;2022-11-20T10:59:42;99798.03;;;-145.95;96.32
37648;BME280;23490;53.656;10.076;2022-11-20T11:02:19;99767.03;;;-145.95;96.10
37648;BME280;23490;53.656;10.076;2022-11-20T11:04:47;99762.91;;;-145.95;96.01
37648;BME280;23490;53.656;10.076;2022-11-20T11:07:39;99779.44;;;-145.95;93.83
37648;BME280;23490;53.656;10.076;2022-11-20T11:10:28;99789.75;;;-145.95;95.76
37648;BME280;23490;53.656;10.076;2022-11-20T11:12:55;99777.38;;;-145.95;93.30
37648;BME280;23490;53.656;10.076;2022-11-20T11:15:38;99756.72;;;-145.95;94.05
37648;BME280;23490;53.656;10.076;2022-11-20T11:18:04;99769.13;;;-145.95;92.79
37648;BME280;23490;53.656;10.076;2022-11-20T11:20:30;99787.69;;;-145.95;95.44
37648;BME280;23490;53.656;10.076;2022-11-20T11:22:58;99777.38;;;-145.95;94.56
37648;BME280;23490;53.656;10.076;2022-11-20T11:25:35;99736.06;;;-145.95;94.85
37648;BME280;23490;53.656;10.076;2022-11-20T11:28:21;99789.75;;;-145.95;95.15
37648;BME280;23490;53.656;10.076;2022-11-20T11:30:50;99773.25;;;-145.95;93.30
37648;BME280;23490;53.656;10.076;2022-11-20T11:33:23;99802.16;;;-145.95;92.25
37648;BME280;23490;53.656;10.076;2022-11-20T11:35:51;99773.25;;;-145.95;94.78
37648;BME280;23490;53.656;10.076;2022-11-20T11:38:36;99764.97;;;-145.95;94.76
37648;BME280;23490;53.656;10.076;2022-11-20T11:41:04;99731.94;;;-145.95;94.47
37648;BME280;23490;53.656;10.076;2022-11-20T11:43:32;99764.97;;;-145.95;94.22
37648;BME280;23490;53.656;10.076;2022-11-20T11:49:14;99769.13;;;-145.95;91.22
37648;BME280;23490;53.656;10.076;2022-11-20T11:52:08;99806.28;;;-145.95;91.26
37648;BME280;23490;53.656;10.076;2022-11-20T11:54:46;99752.59;;;-145.95;90.99
37648;BME280;23490;53.656;10.076;2022-11-20T12:00:03;99744.31;;;-145.95;90.72
37648;BME280;23490;53.656;10.076;2022-11-20T12:05:30;99789.75;;;-145.95;88.65
37648;BME280;23490;53.656;10.076;2022-11-20T12:08:22;99764.97;;;-145.95;89.31
37648;BME280;23490;53.656;10.076;2022-11-20T12:10:56;99769.13;;;-145.95;90.16
37648;BME280;23490;53.656;10.076;2022-11-20T12:15:59;99783.56;;;-145.95;91.96
37648;BME280;23490;53.656;10.076;2022-11-20T12:18:27;99798.03;;;-145.95;92.83
37648;BME280;23490;53.656;10.076;2022-11-20T12:32:02;99816.63;;;-145.95;91.32
37648;BME280;23490;53.656;10.076;2022-11-20T12:43:23;99785.63;;;-145.95;89.61
37648;BME280;23490;53.656;10.076;2022-11-20T12:48:52;99756.72;;;-145.95;89.94
37648;BME280;23490;53.656;10.076;2022-11-20T12:51:35;99783.56;;;-145.95;89.63
37648;BME280;23490;53.656;10.076;2022-11-20T12:57:09;99767.03;;;-145.95;89.06
37648;BME280;23490;53.656;10.076;2022-11-20T12:59:55;99756.72;;;-145.95;89.92
37648;BME280;23490;53.656;10.076;2022-11-20T13:02:29;99746.38;;;-145.95;88.52
37648;BME280;23490;53.656;10.076;2022-11-20T13:05:28;99752.59;;;-145.95;89.77
37648;BME280;23490;53.656;10.076;2022-11-20T13:07:57;99742.25;;;-145.95;90.59
37648;BME280;23490;53.656;10.076;2022-11-20T13:13:22;99760.84;;;-145.95;89.22
37648;BME280;23490;53.656;10.076;2022-11-20T13:18:39;99750.53;;;-145.95;88.72
37648;BME280;23490;53.656;10.076;2022-11-20T13:21:14;99734.00;;;-145.95;87.20
37648;BME280;23490;53.656;10.076;2022-11-20T13:23:39;99740.19;;;-145.95;88.38
37648;BME280;23490;53.656;10.076;2022-11-20T13:26:14;99752.59;;;-145.95;89.27
37648;BME280;23490;53.656;10.076;2022-11-20T13:28:40;99736.06;;;-145.95;89.81
37648;BME280;23490;53.656;10.076;2022-11-20T13:31:28;99781.50;;;-145.95;89.51
37648;BME280;23490;53.656;10.076;2022-11-20T13:33:55;99740.19;;;-145.95;88.37
37648;BME280;23490;53.656;10.076;2022-11-20T13:36:27;99758.78;;;-145.95;87.82
37648;BME280;23490;53.656;10.076;2022-11-20T13:38:54;99806.28;;;-145.95;87.38